sensor_id;sensor_type;location;lat;lon;timestamp;P1;durP1;ratioP1;P2;durP2;ratioP2
10260;SDS011;5175;42.606;23.388;2022-10-31T00:01:11;4.43;;;3.20;;
10260;SDS011;5175;42.606;23.388;2022-10-31T00:03:38;4.67;;;3.00;;
10260;SDS011;5175;42.606;23.388;2022-10-31T00:06:05;7.23;;;3.47;;
10260;SDS011;5175;42.606;23.388;2022-10-31T00:08:33;6.33;;;3.60;;
10260;SDS011;5175;42.606;23.388;2022-10-31T00:11:00;5.87;;;3.20;;
10260;SDS011;5175;42.606;23.388;2022-10-31T00:13:27;5.20;;;3.60;;
10260;SDS011;5175;42.606;23.388;2022-10-31T00:15:54;5.20;;;3.93;;
10260;SDS011;5175;42.606;23.388;2022-10-31T00:18:20;6.27;;;3.20;;
10260;SDS011;5175;42.606;23.388;2022-10-31T00:20:47;4.70;;;4.03;;
10260;SDS011;5175;42.606;23.388;2022-10-31T00:23:14;4.77;;;3.83;;
10260;SDS011;5175;42.606;23.388;2022-10-31T00:25:42;5.13;;;3.33;;
10260;SDS011;5175;42.606;23.388;2022-10-31T00:28:08;4.30;;;3.40;;
10260;SDS011;5175;42.606;23.388;2022-10-31T00:30:36;5.33;;;3.50;;
10260;SDS011;5175;42.606;23.388;2022-10-31T00:33:03;4.97;;;3.43;;
10260;SDS011;5175;42.606;23.388;2022-10-31T00:35:30;6.37;;;3.17;;
10260;SDS011;5175;42.606;23.388;2022-10-31T00:37:57;6.97;;;3.37;;
10260;SDS011;5175;42.606;23.388;2022-10-31T00:40:23;3.87;;;2.87;;
10260;SDS011;5175;42.606;23.388;2022-10-31T00:42:51;4.33;;;3.00;;
10260;SDS011;5175;42.606;23.388;2022-10-31T00:45:18;4.83;;;3.20;;
10260;SDS011;5175;42.606;23.388;2022-10-31T00:47:45;8.53;;;3.50;;
10260;SDS011;5175;42.606;23.388;2022-10-31T00:50:12;6.60;;;2.97;;
10260;SDS011;5175;42.606;23.388;2022-10-31T00:52:38;5.90;;;3.40;;
10260;SDS011;5175;42.606;23.388;2022-10-31T00:55:05;5.03;;;3.10;;
10260;SDS011;5175;42.606;23.388;2022-10-31T00:57:32;7.57;;;3.50;;
10260;SDS011;5175;42.606;23.388;2022-10-31T01:00:00;6.07;;;3.30;;
10260;SDS011;5175;42.606;23.388;2022-10-31T01:02:27;7.03;;;3.50;;
10260;SDS011;5175;42.606;23.388;2022-10-31T01:04:54;4.73;;;3.30;;
10260;SDS011;5175;42.606;23.388;2022-10-31T01:07:21;7.67;;;3.47;;
10260;SDS011;5175;42.606;23.388;2022-10-31T01:09:47;5.50;;;3.53;;
10260;SDS011;5175;42.606;23.388;2022-10-31T01:12:14;6.80;;;3.70;;
10260;SDS011;5175;42.606;23.388;2022-10-31T01:14:42;5.27;;;4.10;;
10260;SDS011;5175;42.606;23.388;2022-10-31T01:17:11;5.03;;;3.40;;
10260;SDS011;5175;42.606;23.388;2022-10-31T01:19:37;5.97;;;3.70;;
10260;SDS011;5175;42.606;23.388;2022-10-31T01:22:04;4.10;;;3.47;;
10260;SDS011;5175;42.606;23.388;2022-10-31T01:24:31;6.63;;;3.47;;
10260;SDS011;5175;42.606;23.388;2022-10-31T01:26:57;6.57;;;4.00;;
10260;SDS011;5175;42.606;23.388;2022-10-31T01:29:24;4.67;;;3.63;;
10260;SDS011;5175;42.606;23.388;2022-10-31T01:31:51;5.47;;;3.80;;
10260;SDS011;5175;42.606;23.388;2022-10-31T01:34:19;7.20;;;3.67;;
10260;SDS011;5175;42.606;23.388;2022-10-31T01:36:46;5.63;;;3.47;;
10260;SDS011;5175;42.606;23.388;2022-10-31T01:39:16;7.40;;;3.80;;
10260;SDS011;5175;42.606;23.388;2022-10-31T01:41:44;4.83;;;3.47;;
10260;SDS011;5175;42.606;23.388;2022-10-31T01:47:17;6.50;;;3.50;;
10260;SDS011;5175;42.606;23.388;2022-10-31T01:49:48;4.50;;;3.33;;
10260;SDS011;5175;42.606;23.388;2022-10-31T01:52:18;6.90;;;3.77;;
10260;SDS011;5175;42.606;23.388;2022-10-31T01:54:50;4.90;;;3.73;;
10260;SDS011;5175;42.606;23.388;2022-10-31T01:57:20;4.70;;;3.60;;
10260;SDS011;5175;42.606;23.388;2022-10-31T01:59:48;4.90;;;3.73;;
10260;SDS011;5175;42.606;23.388;2022-10-31T02:02:19;7.30;;;3.50;;
10260;SDS011;5175;42.606;23.388;2022-10-31T02:04:46;10.30;;;7.53;;
10260;SDS011;5175;42.606;23.388;2022-10-31T02:07:16;10.87;;;7.57;;
10260;SDS011;5175;42.606;23.388;2022-10-31T02:09:47;7.23;;;4.70;;
10260;SDS011;5175;42.606;23.388;2022-10-31T02:12:15;8.70;;;5.40;;
10260;SDS011;5175;42.606;23.388;2022-10-31T02:14:43;8.77;;;5.33;;
10260;SDS011;5175;42.606;23.388;2022-10-31T02:17:10;7.60;;;6.00;;
10260;SDS011;5175;42.606;23.388;2022-10-31T02:19:38;7.47;;;4.83;;
10260;SDS011;5175;42.606;23.388;2022-10-31T02:22:12;6.07;;;4.60;;
10260;SDS011;5175;42.606;23.388;2022-10-31T02:24:46;5.90;;;4.30;;
10260;SDS011;5175;42.606;23.388;2022-10-31T02:27:40;6.47;;;3.93;;
10260;SDS011;5175;42.606;23.388;2022-10-31T02:30:20;4.73;;;3.87;;
10260;SDS011;5175;42.606;23.388;2022-10-31T02:32:55;5.73;;;3.93;;
10260;SDS011;5175;42.606;23.388;2022-10-31T02:35:35;5.83;;;3.90;;
10260;SDS011;5175;42.606;23.388;2022-10-31T02:38:10;5.00;;;3.60;;
10260;SDS011;5175;42.606;23.388;2022-10-31T02:40:46;10.90;;;4.37;;
10260;SDS011;5175;42.606;23.388;2022-10-31T02:43:20;6.00;;;3.70;;
10260;SDS011;5175;42.606;23.388;2022-10-31T02:45:53;6.83;;;3.97;;
10260;SDS011;5175;42.606;23.388;2022-10-31T02:48:26;6.43;;;3.60;;
10260;SDS011;5175;42.606;23.388;2022-10-31T02:50:55;10.13;;;4.13;;
10260;SDS011;5175;42.606;23.388;2022-10-31T02:53:25;5.07;;;3.60;;
10260;SDS011;5175;42.606;23.388;2022-10-31T02:55:56;5.77;;;3.37;;
10260;SDS011;5175;42.606;23.388;2022-10-31T02:58:26;6.53;;;3.60;;
10260;SDS011;5175;42.606;23.388;2022-10-31T03:01:03;5.33;;;3.73;;
10260;SDS011;5175;42.606;23.388;2022-10-31T03:03:55;5.93;;;3.50;;
10260;SDS011;5175;42.606;23.388;2022-10-31T03:06:32;4.17;;;3.27;;
10260;SDS011;5175;42.606;23.388;2022-10-31T03:09:03;6.13;;;3.30;;
10260;SDS011;5175;42.606;23.388;2022-10-31T03:11:39;6.17;;;3.93;;
10260;SDS011;5175;42.606;23.388;2022-10-31T03:14:12;5.27;;;4.40;;
10260;SDS011;5175;42.606;23.388;2022-10-31T03:16:45;7.30;;;4.10;;
10260;SDS011;5175;42.606;23.388;2022-10-31T03:19:15;6.73;;;3.87;;
10260;SDS011;5175;42.606;23.388;2022-10-31T03:21:46;7.70;;;4.20;;
10260;SDS011;5175;42.606;23.388;2022-10-31T03:24:17;6.73;;;3.93;;
10260;SDS011;5175;42.606;23.388;2022-10-31T03:26:48;5.90;;;4.20;;
10260;SDS011;5175;42.606;23.388;2022-10-31T03:29:19;5.30;;;4.30;;
10260;SDS011;5175;42.606;23.388;2022-10-31T03:31:51;6.13;;;4.20;;
10260;SDS011;5175;42.606;23.388;2022-10-31T03:34:23;6.43;;;4.20;;
10260;SDS011;5175;42.606;23.388;2022-10-31T03:36:50;6.23;;;4.40;;
10260;SDS011;5175;42.606;23.388;2022-10-31T03:39:20;7.07;;;4.40;;
10260;SDS011;5175;42.606;23.388;2022-10-31T03:41:52;6.90;;;4.43;;
10260;SDS011;5175;42.606;23.388;2022-10-31T03:44:23;7.90;;;5.20;;
10260;SDS011;5175;42.606;23.388;2022-10-31T03:46:51;6.87;;;5.20;;
10260;SDS011;5175;42.606;23.388;2022-10-31T03:49:18;6.50;;;4.57;;
10260;SDS011;5175;42.606;23.388;2022-10-31T03:51:47;6.33;;;5.03;;
10260;SDS011;5175;42.606;23.388;2022-10-31T03:54:22;6.90;;;4.70;;
10260;SDS011;5175;42.606;23.388;2022-10-31T03:56:53;6.83;;;4.63;;
10260;SDS011;5175;42.606;23.388;2022-10-31T03:59:25;7.37;;;4.97;;
10260;SDS011;5175;42.606;23.388;2022-10-31T04:01:56;7.80;;;5.13;;
10260;SDS011;5175;42.606;23.388;2022-10-31T04:04:27;9.13;;;4.70;;
10260;SDS011;5175;42.606;23.388;2022-10-31T04:06:56;7.57;;;4.90;;
10260;SDS011;5175;42.606;23.388;2022-10-31T04:09:27;6.80;;;4.73;;
10260;SDS011;5175;42.606;23.388;2022-10-31T04:11:57;6.23;;;4.80;;
10260;SDS011;5175;42.606;23.388;2022-10-31T04:14:26;6.53;;;4.63;;
10260;SDS011;5175;42.606;23.388;2022-10-31T04:16:55;7.50;;;5.03;;
10260;SDS011;5175;42.606;23.388;2022-10-31T04:19:22;7.13;;;4.67;;
10260;SDS011;5175;42.606;23.388;2022-10-31T04:21:49;6.83;;;4.67;;
10260;SDS011;5175;42.606;23.388;2022-10-31T04:24:17;8.73;;;5.07;;
10260;SDS011;5175;42.606;23.388;2022-10-31T04:26:44;6.83;;;5.00;;
10260;SDS011;5175;42.606;23.388;2022-10-31T04:29:11;8.73;;;4.73;;
10260;SDS011;5175;42.606;23.388;2022-10-31T04:31:37;7.67;;;4.47;;
10260;SDS011;5175;42.606;23.388;2022-10-31T04:34:04;6.83;;;4.07;;
10260;SDS011;5175;42.606;23.388;2022-10-31T04:36:32;6.50;;;4.40;;
10260;SDS011;5175;42.606;23.388;2022-10-31T04:38:59;5.80;;;4.33;;
10260;SDS011;5175;42.606;23.388;2022-10-31T04:41:27;8.83;;;4.33;;
10260;SDS011;5175;42.606;23.388;2022-10-31T04:43:54;6.40;;;4.20;;
10260;SDS011;5175;42.606;23.388;2022-10-31T04:46:20;6.47;;;4.33;;
10260;SDS011;5175;42.606;23.388;2022-10-31T04:48:47;6.60;;;4.10;;
10260;SDS011;5175;42.606;23.388;2022-10-31T04:51:14;9.00;;;5.23;;
10260;SDS011;5175;42.606;23.388;2022-10-31T04:53:41;10.43;;;7.17;;
10260;SDS011;5175;42.606;23.388;2022-10-31T04:56:07;8.83;;;6.47;;
10260;SDS011;5175;42.606;23.388;2022-10-31T04:58:36;7.00;;;5.43;;
10260;SDS011;5175;42.606;23.388;2022-10-31T05:01:02;8.17;;;5.43;;
10260;SDS011;5175;42.606;23.388;2022-10-31T05:03:29;7.70;;;5.10;;
10260;SDS011;5175;42.606;23.388;2022-10-31T05:05:56;8.70;;;4.80;;
10260;SDS011;5175;42.606;23.388;2022-10-31T05:08:22;9.10;;;5.23;;
10260;SDS011;5175;42.606;23.388;2022-10-31T05:10:49;8.87;;;5.27;;
10260;SDS011;5175;42.606;23.388;2022-10-31T05:13:17;9.27;;;4.60;;
10260;SDS011;5175;42.606;23.388;2022-10-31T05:15:45;7.53;;;4.73;;
10260;SDS011;5175;42.606;23.388;2022-10-31T05:18:12;8.20;;;4.87;;
10260;SDS011;5175;42.606;23.388;2022-10-31T05:20:38;8.53;;;5.07;;
10260;SDS011;5175;42.606;23.388;2022-10-31T05:23:05;9.83;;;4.70;;
10260;SDS011;5175;42.606;23.388;2022-10-31T05:25:32;8.50;;;5.03;;
10260;SDS011;5175;42.606;23.388;2022-10-31T05:27:58;10.27;;;5.73;;
10260;SDS011;5175;42.606;23.388;2022-10-31T05:30:26;8.90;;;5.73;;
10260;SDS011;5175;42.606;23.388;2022-10-31T05:32:55;8.97;;;5.10;;
10260;SDS011;5175;42.606;23.388;2022-10-31T05:35:24;8.63;;;5.53;;
10260;SDS011;5175;42.606;23.388;2022-10-31T05:37:51;8.27;;;5.43;;
10260;SDS011;5175;42.606;23.388;2022-10-31T05:40:19;9.23;;;5.90;;
10260;SDS011;5175;42.606;23.388;2022-10-31T05:42:47;11.03;;;5.73;;
10260;SDS011;5175;42.606;23.388;2022-10-31T05:45:17;11.83;;;5.67;;
10260;SDS011;5175;42.606;23.388;2022-10-31T05:47:49;9.80;;;5.47;;
10260;SDS011;5175;42.606;23.388;2022-10-31T05:50:18;15.17;;;5.47;;
10260;SDS011;5175;42.606;23.388;2022-10-31T05:52:45;10.33;;;5.77;;
10260;SDS011;5175;42.606;23.388;2022-10-31T05:55:12;11.73;;;5.13;;
10260;SDS011;5175;42.606;23.388;2022-10-31T05:57:39;14.13;;;5.70;;
10260;SDS011;5175;42.606;23.388;2022-10-31T06:00:06;11.83;;;5.87;;
10260;SDS011;5175;42.606;23.388;2022-10-31T06:02:34;13.77;;;5.40;;
10260;SDS011;5175;42.606;23.388;2022-10-31T06:05:01;10.30;;;5.23;;
10260;SDS011;5175;42.606;23.388;2022-10-31T06:07:32;13.13;;;5.67;;
10260;SDS011;5175;42.606;23.388;2022-10-31T06:10:00;7.73;;;5.50;;
10260;SDS011;5175;42.606;23.388;2022-10-31T06:12:27;9.97;;;6.13;;
10260;SDS011;5175;42.606;23.388;2022-10-31T06:14:54;15.17;;;8.97;;
10260;SDS011;5175;42.606;23.388;2022-10-31T06:17:21;13.77;;;8.30;;
10260;SDS011;5175;42.606;23.388;2022-10-31T06:19:47;14.33;;;8.47;;
10260;SDS011;5175;42.606;23.388;2022-10-31T06:22:14;12.20;;;10.33;;
10260;SDS011;5175;42.606;23.388;2022-10-31T06:24:43;9.13;;;6.30;;
10260;SDS011;5175;42.606;23.388;2022-10-31T06:27:09;10.60;;;5.43;;
10260;SDS011;5175;42.606;23.388;2022-10-31T06:29:36;5.63;;;4.87;;
10260;SDS011;5175;42.606;23.388;2022-10-31T06:32:03;8.83;;;4.77;;
10260;SDS011;5175;42.606;23.388;2022-10-31T06:34:30;7.27;;;5.10;;
10260;SDS011;5175;42.606;23.388;2022-10-31T06:36:57;7.77;;;5.53;;
10260;SDS011;5175;42.606;23.388;2022-10-31T06:39:24;8.53;;;5.37;;
10260;SDS011;5175;42.606;23.388;2022-10-31T06:41:52;9.70;;;5.00;;
10260;SDS011;5175;42.606;23.388;2022-10-31T06:44:18;7.17;;;4.80;;
10260;SDS011;5175;42.606;23.388;2022-10-31T06:46:45;7.03;;;5.20;;
10260;SDS011;5175;42.606;23.388;2022-10-31T06:49:13;8.83;;;5.23;;
10260;SDS011;5175;42.606;23.388;2022-10-31T06:51:39;8.50;;;4.80;;
10260;SDS011;5175;42.606;23.388;2022-10-31T06:54:06;8.93;;;5.50;;
10260;SDS011;5175;42.606;23.388;2022-10-31T06:56:33;5.70;;;4.87;;
10260;SDS011;5175;42.606;23.388;2022-10-31T06:59:01;8.37;;;5.37;;
10260;SDS011;5175;42.606;23.388;2022-10-31T07:01:28;6.20;;;4.80;;
10260;SDS011;5175;42.606;23.388;2022-10-31T07:03:55;9.20;;;5.47;;
10260;SDS011;5175;42.606;23.388;2022-10-31T07:06:22;8.83;;;6.27;;
10260;SDS011;5175;42.606;23.388;2022-10-31T07:08:48;12.20;;;6.37;;
10260;SDS011;5175;42.606;23.388;2022-10-31T07:11:16;12.43;;;7.73;;
10260;SDS011;5175;42.606;23.388;2022-10-31T07:13:43;8.50;;;7.03;;
10260;SDS011;5175;42.606;23.388;2022-10-31T07:16:11;12.43;;;6.00;;
10260;SDS011;5175;42.606;23.388;2022-10-31T07:18:39;9.70;;;5.70;;
10260;SDS011;5175;42.606;23.388;2022-10-31T07:21:05;7.97;;;5.83;;
10260;SDS011;5175;42.606;23.388;2022-10-31T07:23:32;9.37;;;5.47;;
10260;SDS011;5175;42.606;23.388;2022-10-31T07:25:59;9.88;;;6.38;;
10260;SDS011;5175;42.606;23.388;2022-10-31T07:28:26;9.88;;;6.78;;
10260;SDS011;5175;42.606;23.388;2022-10-31T07:30:53;10.00;;;7.00;;
10260;SDS011;5175;42.606;23.388;2022-10-31T07:33:23;10.23;;;6.68;;
10260;SDS011;5175;42.606;23.388;2022-10-31T07:35:51;14.60;;;7.25;;
10260;SDS011;5175;42.606;23.388;2022-10-31T07:38:19;13.50;;;7.80;;
10260;SDS011;5175;42.606;23.388;2022-10-31T07:40:49;13.65;;;7.63;;
10260;SDS011;5175;42.606;23.388;2022-10-31T07:43:17;10.27;;;7.15;;
10260;SDS011;5175;42.606;23.388;2022-10-31T07:45:48;9.30;;;6.45;;
10260;SDS011;5175;42.606;23.388;2022-10-31T07:48:16;11.07;;;7.32;;
10260;SDS011;5175;42.606;23.388;2022-10-31T07:50:44;11.35;;;8.23;;
10260;SDS011;5175;42.606;23.388;2022-10-31T07:53:11;12.52;;;8.07;;
10260;SDS011;5175;42.606;23.388;2022-10-31T07:55:39;10.80;;;7.90;;
10260;SDS011;5175;42.606;23.388;2022-10-31T07:58:06;12.88;;;8.55;;
10260;SDS011;5175;42.606;23.388;2022-10-31T08:00:35;13.32;;;8.48;;
10260;SDS011;5175;42.606;23.388;2022-10-31T08:03:03;12.43;;;9.35;;
10260;SDS011;5175;42.606;23.388;2022-10-31T08:05:31;12.77;;;9.18;;
10260;SDS011;5175;42.606;23.388;2022-10-31T08:08:00;16.45;;;9.95;;
10260;SDS011;5175;42.606;23.388;2022-10-31T08:10:28;11.80;;;9.55;;
10260;SDS011;5175;42.606;23.388;2022-10-31T08:12:56;15.98;;;11.45;;
10260;SDS011;5175;42.606;23.388;2022-10-31T08:15:24;13.40;;;10.60;;
10260;SDS011;5175;42.606;23.388;2022-10-31T08:17:50;13.57;;;10.75;;
10260;SDS011;5175;42.606;23.388;2022-10-31T08:20:17;17.48;;;11.48;;
10260;SDS011;5175;42.606;23.388;2022-10-31T08:22:51;13.32;;;10.50;;
10260;SDS011;5175;42.606;23.388;2022-10-31T08:25:21;16.15;;;10.80;;
10260;SDS011;5175;42.606;23.388;2022-10-31T08:27:49;15.82;;;11.30;;
10260;SDS011;5175;42.606;23.388;2022-10-31T08:30:17;12.32;;;11.00;;
10260;SDS011;5175;42.606;23.388;2022-10-31T08:32:44;15.25;;;12.00;;
10260;SDS011;5175;42.606;23.388;2022-10-31T08:35:11;16.35;;;10.57;;
10260;SDS011;5175;42.606;23.388;2022-10-31T08:37:38;15.25;;;11.05;;
10260;SDS011;5175;42.606;23.388;2022-10-31T08:40:05;17.60;;;11.60;;
10260;SDS011;5175;42.606;23.388;2022-10-31T08:42:34;15.98;;;11.18;;
10260;SDS011;5175;42.606;23.388;2022-10-31T08:45:01;18.98;;;11.75;;
10260;SDS011;5175;42.606;23.388;2022-10-31T08:47:28;15.73;;;11.57;;
10260;SDS011;5175;42.606;23.388;2022-10-31T08:49:55;14.52;;;11.27;;
10260;SDS011;5175;42.606;23.388;2022-10-31T08:52:22;19.27;;;11.82;;
10260;SDS011;5175;42.606;23.388;2022-10-31T08:54:50;16.73;;;11.75;;
10260;SDS011;5175;42.606;23.388;2022-10-31T08:57:16;19.52;;;11.43;;
10260;SDS011;5175;42.606;23.388;2022-10-31T08:59:45;13.32;;;11.20;;
10260;SDS011;5175;42.606;23.388;2022-10-31T09:02:11;20.65;;;11.02;;
10260;SDS011;5175;42.606;23.388;2022-10-31T09:04:38;18.13;;;12.20;;
10260;SDS011;5175;42.606;23.388;2022-10-31T09:07:05;16.23;;;11.15;;
10260;SDS011;5175;42.606;23.388;2022-10-31T09:09:32;16.92;;;10.63;;
10260;SDS011;5175;42.606;23.388;2022-10-31T09:11:58;16.90;;;10.57;;
10260;SDS011;5175;42.606;23.388;2022-10-31T09:14:25;15.25;;;11.40;;
10260;SDS011;5175;42.606;23.388;2022-10-31T09:16:54;22.65;;;11.95;;
10260;SDS011;5175;42.606;23.388;2022-10-31T09:19:20;14.90;;;11.75;;
10260;SDS011;5175;42.606;23.388;2022-10-31T09:21:47;16.17;;;11.27;;
10260;SDS011;5175;42.606;23.388;2022-10-31T09:24:17;18.80;;;11.55;;
10260;SDS011;5175;42.606;23.388;2022-10-31T09:26:44;16.75;;;11.43;;
10260;SDS011;5175;42.606;23.388;2022-10-31T09:29:11;17.30;;;11.57;;
10260;SDS011;5175;42.606;23.388;2022-10-31T09:31:37;18.05;;;10.05;;
10260;SDS011;5175;42.606;23.388;2022-10-31T09:34:05;14.45;;;10.05;;
10260;SDS011;5175;42.606;23.388;2022-10-31T09:36:32;12.65;;;9.45;;
10260;SDS011;5175;42.606;23.388;2022-10-31T09:38:59;14.65;;;9.30;;
10260;SDS011;5175;42.606;23.388;2022-10-31T09:41:28;15.68;;;8.80;;
10260;SDS011;5175;42.606;23.388;2022-10-31T09:44:04;13.95;;;9.20;;
10260;SDS011;5175;42.606;23.388;2022-10-31T09:46:39;12.50;;;8.70;;
10260;SDS011;5175;42.606;23.388;2022-10-31T09:49:21;12.00;;;8.38;;
10260;SDS011;5175;42.606;23.388;2022-10-31T09:51:59;12.98;;;8.18;;
10260;SDS011;5175;42.606;23.388;2022-10-31T09:54:32;15.93;;;9.13;;
10260;SDS011;5175;42.606;23.388;2022-10-31T09:57:01;8.93;;;6.38;;
10260;SDS011;5175;42.606;23.388;2022-10-31T09:59:30;9.13;;;5.97;;
10260;SDS011;5175;42.606;23.388;2022-10-31T10:02:00;7.03;;;5.15;;
10260;SDS011;5175;42.606;23.388;2022-10-31T10:04:36;9.13;;;4.78;;
10260;SDS011;5175;42.606;23.388;2022-10-31T10:07:10;9.13;;;5.63;;
10260;SDS011;5175;42.606;23.388;2022-10-31T10:09:43;10.13;;;5.72;;
10260;SDS011;5175;42.606;23.388;2022-10-31T10:12:13;8.32;;;5.50;;
10260;SDS011;5175;42.606;23.388;2022-10-31T10:14:49;9.13;;;5.03;;
10260;SDS011;5175;42.606;23.388;2022-10-31T10:17:33;9.77;;;5.28;;
10260;SDS011;5175;42.606;23.388;2022-10-31T10:20:16;9.00;;;4.70;;
10260;SDS011;5175;42.606;23.388;2022-10-31T10:22:54;7.78;;;4.53;;
10260;SDS011;5175;42.606;23.388;2022-10-31T10:25:31;6.57;;;5.22;;
10260;SDS011;5175;42.606;23.388;2022-10-31T10:28:08;7.43;;;4.13;;
10260;SDS011;5175;42.606;23.388;2022-10-31T10:30:44;6.57;;;4.43;;
10260;SDS011;5175;42.606;23.388;2022-10-31T10:33:16;11.30;;;4.53;;
10260;SDS011;5175;42.606;23.388;2022-10-31T10:35:48;7.28;;;4.40;;
10260;SDS011;5175;42.606;23.388;2022-10-31T10:38:19;10.73;;;4.25;;
10260;SDS011;5175;42.606;23.388;2022-10-31T10:40:52;6.82;;;4.10;;
10260;SDS011;5175;42.606;23.388;2022-10-31T10:43:21;5.78;;;3.33;;
10260;SDS011;5175;42.606;23.388;2022-10-31T10:45:50;5.13;;;3.17;;
10260;SDS011;5175;42.606;23.388;2022-10-31T10:48:44;5.57;;;3.42;;
10260;SDS011;5175;42.606;23.388;2022-10-31T10:51:26;7.28;;;3.85;;
10260;SDS011;5175;42.606;23.388;2022-10-31T10:54:02;9.27;;;3.55;;
10260;SDS011;5175;42.606;23.388;2022-10-31T10:56:48;19.20;;;4.28;;
10260;SDS011;5175;42.606;23.388;2022-10-31T10:59:23;12.85;;;4.32;;
10260;SDS011;5175;42.606;23.388;2022-10-31T11:01:50;10.07;;;4.05;;
10260;SDS011;5175;42.606;23.388;2022-10-31T11:04:25;5.30;;;3.63;;
10260;SDS011;5175;42.606;23.388;2022-10-31T11:07:01;9.38;;;4.05;;
10260;SDS011;5175;42.606;23.388;2022-10-31T11:09:29;8.05;;;4.38;;
10260;SDS011;5175;42.606;23.388;2022-10-31T11:11:56;8.63;;;3.53;;
10260;SDS011;5175;42.606;23.388;2022-10-31T11:14:24;6.80;;;3.65;;
10260;SDS011;5175;42.606;23.388;2022-10-31T11:16:54;11.25;;;4.22;;
10260;SDS011;5175;42.606;23.388;2022-10-31T11:19:33;12.18;;;4.30;;
10260;SDS011;5175;42.606;23.388;2022-10-31T11:22:06;7.28;;;3.70;;
10260;SDS011;5175;42.606;23.388;2022-10-31T11:24:37;5.38;;;3.50;;
10260;SDS011;5175;42.606;23.388;2022-10-31T11:27:14;12.05;;;4.00;;
10260;SDS011;5175;42.606;23.388;2022-10-31T11:29:42;9.75;;;3.58;;
10260;SDS011;5175;42.606;23.388;2022-10-31T11:32:15;6.00;;;3.15;;
10260;SDS011;5175;42.606;23.388;2022-10-31T11:34:45;9.75;;;4.03;;
10260;SDS011;5175;42.606;23.388;2022-10-31T11:37:17;8.75;;;3.20;;
10260;SDS011;5175;42.606;23.388;2022-10-31T11:39:48;8.65;;;3.72;;
10260;SDS011;5175;42.606;23.388;2022-10-31T11:42:19;6.75;;;3.42;;
10260;SDS011;5175;42.606;23.388;2022-10-31T11:44:49;5.60;;;3.10;;
10260;SDS011;5175;42.606;23.388;2022-10-31T11:47:20;7.00;;;3.47;;
10260;SDS011;5175;42.606;23.388;2022-10-31T11:49:51;6.30;;;3.42;;
10260;SDS011;5175;42.606;23.388;2022-10-31T11:52:21;9.07;;;3.15;;
10260;SDS011;5175;42.606;23.388;2022-10-31T11:54:51;7.35;;;3.35;;
10260;SDS011;5175;42.606;23.388;2022-10-31T11:57:24;7.88;;;2.97;;
10260;SDS011;5175;42.606;23.388;2022-10-31T11:59:54;9.25;;;2.95;;
10260;SDS011;5175;42.606;23.388;2022-10-31T12:02:23;10.27;;;3.35;;
10260;SDS011;5175;42.606;23.388;2022-10-31T12:04:51;7.35;;;3.50;;
10260;SDS011;5175;42.606;23.388;2022-10-31T12:07:25;6.38;;;3.08;;
10260;SDS011;5175;42.606;23.388;2022-10-31T12:09:52;8.63;;;3.42;;
10260;SDS011;5175;42.606;23.388;2022-10-31T12:12:29;8.40;;;2.97;;
10260;SDS011;5175;42.606;23.388;2022-10-31T12:15:10;6.88;;;2.90;;
10260;SDS011;5175;42.606;23.388;2022-10-31T12:17:52;6.05;;;3.22;;
10260;SDS011;5175;42.606;23.388;2022-10-31T12:20:26;8.10;;;3.03;;
10260;SDS011;5175;42.606;23.388;2022-10-31T12:23:05;7.15;;;3.20;;
10260;SDS011;5175;42.606;23.388;2022-10-31T12:25:40;10.38;;;3.58;;
10260;SDS011;5175;42.606;23.388;2022-10-31T12:28:25;6.18;;;3.22;;
10260;SDS011;5175;42.606;23.388;2022-10-31T12:31:22;7.00;;;3.33;;
10260;SDS011;5175;42.606;23.388;2022-10-31T12:33:59;8.00;;;3.38;;
10260;SDS011;5175;42.606;23.388;2022-10-31T12:36:40;5.60;;;3.60;;
10260;SDS011;5175;42.606;23.388;2022-10-31T12:39:23;7.55;;;3.55;;
10260;SDS011;5175;42.606;23.388;2022-10-31T12:41:52;7.07;;;3.70;;
10260;SDS011;5175;42.606;23.388;2022-10-31T12:44:35;8.95;;;3.83;;
10260;SDS011;5175;42.606;23.388;2022-10-31T12:50:27;7.40;;;3.47;;
10260;SDS011;5175;42.606;23.388;2022-10-31T12:53:06;9.40;;;3.75;;
10260;SDS011;5175;42.606;23.388;2022-10-31T12:55:46;7.65;;;3.30;;
10260;SDS011;5175;42.606;23.388;2022-10-31T12:58:23;6.72;;;3.03;;
10260;SDS011;5175;42.606;23.388;2022-10-31T13:00:56;6.72;;;3.55;;
10260;SDS011;5175;42.606;23.388;2022-10-31T13:03:32;7.88;;;3.70;;
10260;SDS011;5175;42.606;23.388;2022-10-31T13:06:04;7.30;;;3.35;;
10260;SDS011;5175;42.606;23.388;2022-10-31T13:08:36;6.57;;;3.17;;
10260;SDS011;5175;42.606;23.388;2022-10-31T13:11:09;8.50;;;3.47;;
10260;SDS011;5175;42.606;23.388;2022-10-31T13:13:40;6.22;;;3.35;;
10260;SDS011;5175;42.606;23.388;2022-10-31T13:16:10;6.47;;;3.30;;
10260;SDS011;5175;42.606;23.388;2022-10-31T13:18:42;8.38;;;3.50;;
10260;SDS011;5175;42.606;23.388;2022-10-31T13:21:17;6.95;;;3.60;;
10260;SDS011;5175;42.606;23.388;2022-10-31T13:23:49;7.88;;;3.55;;
10260;SDS011;5175;42.606;23.388;2022-10-31T13:26:21;6.45;;;3.20;;
10260;SDS011;5175;42.606;23.388;2022-10-31T13:28:56;6.40;;;3.53;;
10260;SDS011;5175;42.606;23.388;2022-10-31T13:31:29;8.10;;;3.35;;
10260;SDS011;5175;42.606;23.388;2022-10-31T13:33:57;8.48;;;3.65;;
10260;SDS011;5175;42.606;23.388;2022-10-31T13:36:29;9.75;;;3.67;;
10260;SDS011;5175;42.606;23.388;2022-10-31T13:39:03;11.05;;;3.85;;
10260;SDS011;5175;42.606;23.388;2022-10-31T13:41:46;12.35;;;3.85;;
10260;SDS011;5175;42.606;23.388;2022-10-31T13:44:18;8.18;;;3.70;;
10260;SDS011;5175;42.606;23.388;2022-10-31T13:46:49;12.02;;;4.82;;
10260;SDS011;5175;42.606;23.388;2022-10-31T13:52:16;18.92;;;6.38;;
10260;SDS011;5175;42.606;23.388;2022-10-31T13:54:49;28.90;;;17.33;;
10260;SDS011;5175;42.606;23.388;2022-10-31T13:57:24;17.90;;;5.28;;
10260;SDS011;5175;42.606;23.388;2022-10-31T13:59:58;12.68;;;4.18;;
10260;SDS011;5175;42.606;23.388;2022-10-31T14:02:26;6.93;;;4.47;;
10260;SDS011;5175;42.606;23.388;2022-10-31T14:04:56;11.70;;;5.38;;
10260;SDS011;5175;42.606;23.388;2022-10-31T14:07:26;19.90;;;6.22;;
10260;SDS011;5175;42.606;23.388;2022-10-31T14:09:56;12.82;;;5.50;;
10260;SDS011;5175;42.606;23.388;2022-10-31T14:12:28;13.27;;;5.93;;
10260;SDS011;5175;42.606;23.388;2022-10-31T14:14:58;17.60;;;6.38;;
10260;SDS011;5175;42.606;23.388;2022-10-31T14:17:31;19.77;;;6.30;;
10260;SDS011;5175;42.606;23.388;2022-10-31T14:20:24;22.60;;;7.82;;
10260;SDS011;5175;42.606;23.388;2022-10-31T14:23:10;28.08;;;12.02;;
10260;SDS011;5175;42.606;23.388;2022-10-31T14:25:51;42.22;;;21.48;;
10260;SDS011;5175;42.606;23.388;2022-10-31T14:28:20;38.20;;;21.10;;
10260;SDS011;5175;42.606;23.388;2022-10-31T14:30:52;22.80;;;12.90;;
10260;SDS011;5175;42.606;23.388;2022-10-31T14:33:20;24.10;;;13.18;;
10260;SDS011;5175;42.606;23.388;2022-10-31T14:35:51;35.13;;;18.63;;
10260;SDS011;5175;42.606;23.388;2022-10-31T14:38:26;33.38;;;15.48;;
10260;SDS011;5175;42.606;23.388;2022-10-31T14:41:24;42.92;;;28.33;;
10260;SDS011;5175;42.606;23.388;2022-10-31T14:47:10;33.60;;;14.27;;
10260;SDS011;5175;42.606;23.388;2022-10-31T14:49:50;33.08;;;13.65;;
10260;SDS011;5175;42.606;23.388;2022-10-31T14:52:30;34.92;;;12.73;;
10260;SDS011;5175;42.606;23.388;2022-10-31T14:54:58;34.63;;;13.05;;
10260;SDS011;5175;42.606;23.388;2022-10-31T14:57:27;31.00;;;12.77;;
10260;SDS011;5175;42.606;23.388;2022-10-31T14:59:59;25.27;;;10.63;;
10260;SDS011;5175;42.606;23.388;2022-10-31T15:02:31;31.70;;;10.60;;
10260;SDS011;5175;42.606;23.388;2022-10-31T15:05:05;22.95;;;8.13;;
10260;SDS011;5175;42.606;23.388;2022-10-31T15:07:34;19.98;;;6.43;;
10260;SDS011;5175;42.606;23.388;2022-10-31T15:10:02;11.45;;;5.32;;
10260;SDS011;5175;42.606;23.388;2022-10-31T15:12:32;14.52;;;5.68;;